sensor_id;sensor_type;location;lat;lon;timestamp;P1;durP1;ratioP1;P2;durP2;ratioP2
10667;SDS011;5382;42.136;24.796;2022-10-16T00:00:30;9.85;;;4.60;;
10667;SDS011;5382;42.136;24.796;2022-10-16T00:02:57;4.55;;;4.10;;
10667;SDS011;5382;42.136;24.796;2022-10-16T00:05:24;8.80;;;4.55;;
10667;SDS011;5382;42.136;24.796;2022-10-16T00:07:51;6.00;;;4.40;;
10667;SDS011;5382;42.136;24.796;2022-10-16T00:10:19;4.88;;;4.22;;
10667;SDS011;5382;42.136;24.796;2022-10-16T00:12:46;9.10;;;4.05;;
10667;SDS011;5382;42.136;24.796;2022-10-16T00:15:13;7.28;;;4.50;;
10667;SDS011;5382;42.136;24.796;2022-10-16T00:17:40;6.30;;;4.38;;
10667;SDS011;5382;42.136;24.796;2022-10-16T00:20:07;5.60;;;4.40;;
10667;SDS011;5382;42.136;24.796;2022-10-16T00:22:34;7.32;;;4.47;;
10667;SDS011;5382;42.136;24.796;2022-10-16T00:25:01;5.82;;;4.32;;
10667;SDS011;5382;42.136;24.796;2022-10-16T00:27:30;6.43;;;4.78;;
10667;SDS011;5382;42.136;24.796;2022-10-16T00:29:57;5.93;;;4.00;;
10667;SDS011;5382;42.136;24.796;2022-10-16T00:32:26;7.80;;;4.72;;
10667;SDS011;5382;42.136;24.796;2022-10-16T00:34:53;4.82;;;4.35;;
10667;SDS011;5382;42.136;24.796;2022-10-16T00:37:20;10.48;;;4.90;;
10667;SDS011;5382;42.136;24.796;2022-10-16T00:39:47;8.75;;;4.47;;
10667;SDS011;5382;42.136;24.796;2022-10-16T00:42:14;4.75;;;3.97;;
10667;SDS011;5382;42.136;24.796;2022-10-16T00:44:45;6.63;;;4.40;;
10667;SDS011;5382;42.136;24.796;2022-10-16T00:47:16;6.40;;;4.60;;
10667;SDS011;5382;42.136;24.796;2022-10-16T00:49:47;8.55;;;4.55;;
10667;SDS011;5382;42.136;24.796;2022-10-16T00:52:16;6.82;;;4.63;;
10667;SDS011;5382;42.136;24.796;2022-10-16T00:54:43;5.78;;;4.25;;
10667;SDS011;5382;42.136;24.796;2022-10-16T00:57:12;7.05;;;4.53;;
10667;SDS011;5382;42.136;24.796;2022-10-16T00:59:40;8.30;;;4.50;;
10667;SDS011;5382;42.136;24.796;2022-10-16T01:02:10;8.80;;;5.60;;
10667;SDS011;5382;42.136;24.796;2022-10-16T01:04:40;10.85;;;5.93;;
10667;SDS011;5382;42.136;24.796;2022-10-16T01:07:11;11.95;;;5.88;;
10667;SDS011;5382;42.136;24.796;2022-10-16T01:09:46;12.80;;;7.32;;
10667;SDS011;5382;42.136;24.796;2022-10-16T01:12:22;10.80;;;5.57;;
10667;SDS011;5382;42.136;24.796;2022-10-16T01:14:58;10.93;;;6.97;;
10667;SDS011;5382;42.136;24.796;2022-10-16T01:17:31;9.50;;;6.45;;
10667;SDS011;5382;42.136;24.796;2022-10-16T01:20:03;12.65;;;6.60;;
10667;SDS011;5382;42.136;24.796;2022-10-16T01:22:38;12.95;;;6.55;;
10667;SDS011;5382;42.136;24.796;2022-10-16T01:25:11;8.68;;;6.75;;
10667;SDS011;5382;42.136;24.796;2022-10-16T01:27:53;11.35;;;6.10;;
10667;SDS011;5382;42.136;24.796;2022-10-16T01:30:22;8.75;;;5.63;;
10667;SDS011;5382;42.136;24.796;2022-10-16T01:32:53;6.53;;;5.18;;
10667;SDS011;5382;42.136;24.796;2022-10-16T01:35:25;8.15;;;5.40;;
10667;SDS011;5382;42.136;24.796;2022-10-16T01:37:55;11.93;;;5.53;;
10667;SDS011;5382;42.136;24.796;2022-10-16T01:40:28;10.10;;;6.20;;
10667;SDS011;5382;42.136;24.796;2022-10-16T01:43:00;9.93;;;5.38;;
10667;SDS011;5382;42.136;24.796;2022-10-16T01:45:31;9.90;;;5.70;;
10667;SDS011;5382;42.136;24.796;2022-10-16T01:47:59;9.60;;;5.65;;
10667;SDS011;5382;42.136;24.796;2022-10-16T01:50:29;9.75;;;5.70;;
10667;SDS011;5382;42.136;24.796;2022-10-16T01:52:59;8.18;;;5.97;;
10667;SDS011;5382;42.136;24.796;2022-10-16T01:55:30;6.47;;;5.78;;
10667;SDS011;5382;42.136;24.796;2022-10-16T01:58:03;8.15;;;6.03;;
10667;SDS011;5382;42.136;24.796;2022-10-16T02:00:33;8.32;;;5.95;;
10667;SDS011;5382;42.136;24.796;2022-10-16T02:03:02;7.38;;;5.85;;
10667;SDS011;5382;42.136;24.796;2022-10-16T02:05:31;10.25;;;6.85;;
10667;SDS011;5382;42.136;24.796;2022-10-16T02:08:03;8.50;;;6.60;;
10667;SDS011;5382;42.136;24.796;2022-10-16T02:10:30;7.47;;;5.53;;
10667;SDS011;5382;42.136;24.796;2022-10-16T02:12:57;10.25;;;5.90;;
10667;SDS011;5382;42.136;24.796;2022-10-16T02:15:31;8.77;;;6.20;;
10667;SDS011;5382;42.136;24.796;2022-10-16T02:17:58;8.80;;;6.20;;
10667;SDS011;5382;42.136;24.796;2022-10-16T02:20:27;11.73;;;6.55;;
10667;SDS011;5382;42.136;24.796;2022-10-16T02:22:58;8.68;;;6.60;;
10667;SDS011;5382;42.136;24.796;2022-10-16T02:25:29;6.97;;;6.13;;
10667;SDS011;5382;42.136;24.796;2022-10-16T02:27:59;8.10;;;5.80;;
10667;SDS011;5382;42.136;24.796;2022-10-16T02:30:33;10.13;;;6.22;;
10667;SDS011;5382;42.136;24.796;2022-10-16T02:33:05;10.68;;;6.80;;
10667;SDS011;5382;42.136;24.796;2022-10-16T02:35:34;7.03;;;5.80;;
10667;SDS011;5382;42.136;24.796;2022-10-16T02:38:03;8.90;;;6.90;;
10667;SDS011;5382;42.136;24.796;2022-10-16T02:40:30;12.52;;;6.40;;
10667;SDS011;5382;42.136;24.796;2022-10-16T02:42:58;6.75;;;5.75;;
10667;SDS011;5382;42.136;24.796;2022-10-16T02:45:25;9.02;;;5.78;;
10667;SDS011;5382;42.136;24.796;2022-10-16T02:47:53;8.27;;;6.13;;
10667;SDS011;5382;42.136;24.796;2022-10-16T02:50:20;9.82;;;6.13;;
10667;SDS011;5382;42.136;24.796;2022-10-16T02:52:47;15.45;;;6.68;;
10667;SDS011;5382;42.136;24.796;2022-10-16T02:55:14;7.50;;;5.70;;
10667;SDS011;5382;42.136;24.796;2022-10-16T02:57:41;8.00;;;6.22;;
10667;SDS011;5382;42.136;24.796;2022-10-16T03:00:08;10.75;;;6.43;;
10667;SDS011;5382;42.136;24.796;2022-10-16T03:02:37;8.55;;;5.63;;
10667;SDS011;5382;42.136;24.796;2022-10-16T03:05:06;8.23;;;5.95;;
10667;SDS011;5382;42.136;24.796;2022-10-16T03:07:34;6.78;;;5.78;;
10667;SDS011;5382;42.136;24.796;2022-10-16T03:10:01;8.55;;;6.25;;
10667;SDS011;5382;42.136;24.796;2022-10-16T03:12:28;8.25;;;5.97;;
10667;SDS011;5382;42.136;24.796;2022-10-16T03:14:55;10.50;;;6.43;;
10667;SDS011;5382;42.136;24.796;2022-10-16T03:17:22;9.55;;;6.50;;
10667;SDS011;5382;42.136;24.796;2022-10-16T03:19:49;8.38;;;6.03;;
10667;SDS011;5382;42.136;24.796;2022-10-16T03:22:18;8.13;;;5.93;;
10667;SDS011;5382;42.136;24.796;2022-10-16T03:24:44;8.00;;;6.40;;
10667;SDS011;5382;42.136;24.796;2022-10-16T03:27:11;10.18;;;6.68;;
10667;SDS011;5382;42.136;24.796;2022-10-16T03:29:38;9.35;;;6.38;;
10667;SDS011;5382;42.136;24.796;2022-10-16T03:32:14;9.13;;;6.25;;
10667;SDS011;5382;42.136;24.796;2022-10-16T03:34:41;9.30;;;6.45;;
10667;SDS011;5382;42.136;24.796;2022-10-16T03:37:07;10.15;;;6.35;;
10667;SDS011;5382;42.136;24.796;2022-10-16T03:39:36;10.13;;;6.07;;
10667;SDS011;5382;42.136;24.796;2022-10-16T03:42:02;8.95;;;6.38;;
10667;SDS011;5382;42.136;24.796;2022-10-16T03:44:29;9.57;;;6.15;;
10667;SDS011;5382;42.136;24.796;2022-10-16T03:46:56;7.80;;;5.93;;
10667;SDS011;5382;42.136;24.796;2022-10-16T03:49:23;9.07;;;5.97;;
10667;SDS011;5382;42.136;24.796;2022-10-16T03:51:49;8.07;;;6.10;;
10667;SDS011;5382;42.136;24.796;2022-10-16T03:54:16;8.77;;;6.30;;
10667;SDS011;5382;42.136;24.796;2022-10-16T03:56:45;11.82;;;6.40;;
10667;SDS011;5382;42.136;24.796;2022-10-16T03:59:11;9.60;;;6.78;;
10667;SDS011;5382;42.136;24.796;2022-10-16T04:01:38;10.18;;;7.00;;
10667;SDS011;5382;42.136;24.796;2022-10-16T04:04:05;9.73;;;6.55;;
10667;SDS011;5382;42.136;24.796;2022-10-16T04:06:32;14.30;;;7.00;;
10667;SDS011;5382;42.136;24.796;2022-10-16T04:08:59;9.75;;;6.90;;
10667;SDS011;5382;42.136;24.796;2022-10-16T04:11:25;11.20;;;7.22;;
10667;SDS011;5382;42.136;24.796;2022-10-16T04:13:54;9.68;;;7.05;;
10667;SDS011;5382;42.136;24.796;2022-10-16T04:16:20;10.13;;;7.68;;
10667;SDS011;5382;42.136;24.796;2022-10-16T04:18:47;12.30;;;7.88;;
10667;SDS011;5382;42.136;24.796;2022-10-16T04:21:14;12.07;;;8.05;;
10667;SDS011;5382;42.136;24.796;2022-10-16T04:23:41;12.55;;;8.07;;
10667;SDS011;5382;42.136;24.796;2022-10-16T04:26:08;9.45;;;6.97;;
10667;SDS011;5382;42.136;24.796;2022-10-16T04:28:35;11.65;;;6.95;;
10667;SDS011;5382;42.136;24.796;2022-10-16T04:31:04;12.25;;;8.48;;
10667;SDS011;5382;42.136;24.796;2022-10-16T04:33:32;12.75;;;7.45;;
10667;SDS011;5382;42.136;24.796;2022-10-16T04:35:59;12.13;;;8.00;;
10667;SDS011;5382;42.136;24.796;2022-10-16T04:38:26;12.45;;;8.18;;
10667;SDS011;5382;42.136;24.796;2022-10-16T04:40:53;14.77;;;7.55;;
10667;SDS011;5382;42.136;24.796;2022-10-16T04:43:20;13.25;;;7.68;;
10667;SDS011;5382;42.136;24.796;2022-10-16T04:45:47;11.20;;;8.02;;
10667;SDS011;5382;42.136;24.796;2022-10-16T04:48:17;10.73;;;7.63;;
10667;SDS011;5382;42.136;24.796;2022-10-16T04:50:44;11.02;;;7.85;;
10667;SDS011;5382;42.136;24.796;2022-10-16T04:53:10;10.60;;;7.57;;
10667;SDS011;5382;42.136;24.796;2022-10-16T04:55:37;12.43;;;7.78;;
10667;SDS011;5382;42.136;24.796;2022-10-16T04:58:04;11.65;;;7.45;;
10667;SDS011;5382;42.136;24.796;2022-10-16T05:00:31;15.45;;;7.70;;
10667;SDS011;5382;42.136;24.796;2022-10-16T05:02:58;12.23;;;7.90;;
10667;SDS011;5382;42.136;24.796;2022-10-16T05:05:27;14.40;;;8.35;;
10667;SDS011;5382;42.136;24.796;2022-10-16T05:07:54;11.32;;;8.52;;
10667;SDS011;5382;42.136;24.796;2022-10-16T05:10:21;14.00;;;7.82;;
10667;SDS011;5382;42.136;24.796;2022-10-16T05:12:48;16.20;;;8.38;;
10667;SDS011;5382;42.136;24.796;2022-10-16T05:15:15;9.10;;;7.50;;
10667;SDS011;5382;42.136;24.796;2022-10-16T05:17:42;16.80;;;8.35;;
10667;SDS011;5382;42.136;24.796;2022-10-16T05:20:08;15.07;;;9.02;;
10667;SDS011;5382;42.136;24.796;2022-10-16T05:22:37;12.93;;;8.52;;
10667;SDS011;5382;42.136;24.796;2022-10-16T05:25:04;11.63;;;8.10;;
10667;SDS011;5382;42.136;24.796;2022-10-16T05:27:31;15.07;;;9.70;;
10667;SDS011;5382;42.136;24.796;2022-10-16T05:30:00;19.60;;;10.90;;
10667;SDS011;5382;42.136;24.796;2022-10-16T05:32:27;14.30;;;9.23;;
10667;SDS011;5382;42.136;24.796;2022-10-16T05:34:54;15.65;;;9.55;;
10667;SDS011;5382;42.136;24.796;2022-10-16T05:37:21;11.70;;;9.13;;
10667;SDS011;5382;42.136;24.796;2022-10-16T05:39:49;16.13;;;9.90;;
10667;SDS011;5382;42.136;24.796;2022-10-16T05:42:16;17.75;;;9.70;;
10667;SDS011;5382;42.136;24.796;2022-10-16T05:44:42;13.07;;;8.80;;
10667;SDS011;5382;42.136;24.796;2022-10-16T05:47:09;14.07;;;8.75;;
10667;SDS011;5382;42.136;24.796;2022-10-16T05:49:39;21.45;;;9.63;;
10667;SDS011;5382;42.136;24.796;2022-10-16T05:52:06;13.52;;;9.50;;
10667;SDS011;5382;42.136;24.796;2022-10-16T05:54:32;12.93;;;9.20;;
10667;SDS011;5382;42.136;24.796;2022-10-16T05:57:01;15.65;;;8.90;;
10667;SDS011;5382;42.136;24.796;2022-10-16T05:59:27;12.77;;;7.47;;
10667;SDS011;5382;42.136;24.796;2022-10-16T06:01:54;12.38;;;7.60;;
10667;SDS011;5382;42.136;24.796;2022-10-16T06:04:21;10.55;;;8.65;;
10667;SDS011;5382;42.136;24.796;2022-10-16T06:06:48;10.45;;;7.53;;
10667;SDS011;5382;42.136;24.796;2022-10-16T06:09:14;12.38;;;7.88;;
10667;SDS011;5382;42.136;24.796;2022-10-16T06:11:41;14.27;;;9.15;;
10667;SDS011;5382;42.136;24.796;2022-10-16T06:14:09;14.88;;;8.40;;
10667;SDS011;5382;42.136;24.796;2022-10-16T06:16:36;11.00;;;7.93;;
10667;SDS011;5382;42.136;24.796;2022-10-16T06:19:04;10.82;;;8.13;;
10667;SDS011;5382;42.136;24.796;2022-10-16T06:21:33;11.43;;;8.05;;
10667;SDS011;5382;42.136;24.796;2022-10-16T06:24:00;17.35;;;9.05;;
10667;SDS011;5382;42.136;24.796;2022-10-16T06:26:28;11.73;;;8.57;;
10667;SDS011;5382;42.136;24.796;2022-10-16T06:28:56;9.43;;;6.78;;
10667;SDS011;5382;42.136;24.796;2022-10-16T06:31:26;9.73;;;7.03;;
10667;SDS011;5382;42.136;24.796;2022-10-16T06:33:57;11.93;;;7.20;;
10667;SDS011;5382;42.136;24.796;2022-10-16T06:36:25;7.47;;;5.90;;
10667;SDS011;5382;42.136;24.796;2022-10-16T06:38:52;9.73;;;5.97;;
10667;SDS011;5382;42.136;24.796;2022-10-16T06:41:20;10.15;;;5.55;;
10667;SDS011;5382;42.136;24.796;2022-10-16T06:43:48;7.88;;;4.85;;
10667;SDS011;5382;42.136;24.796;2022-10-16T06:46:15;8.07;;;4.93;;
10667;SDS011;5382;42.136;24.796;2022-10-16T06:48:45;7.15;;;4.53;;
10667;SDS011;5382;42.136;24.796;2022-10-16T06:51:13;5.95;;;4.75;;
10667;SDS011;5382;42.136;24.796;2022-10-16T06:53:42;7.60;;;5.43;;
10667;SDS011;5382;42.136;24.796;2022-10-16T06:56:11;6.35;;;4.85;;
10667;SDS011;5382;42.136;24.796;2022-10-16T06:58:39;6.75;;;5.03;;
10667;SDS011;5382;42.136;24.796;2022-10-16T07:01:06;7.00;;;6.30;;
10667;SDS011;5382;42.136;24.796;2022-10-16T07:03:36;8.40;;;6.47;;
10667;SDS011;5382;42.136;24.796;2022-10-16T07:06:05;7.20;;;6.28;;
10667;SDS011;5382;42.136;24.796;2022-10-16T07:08:33;9.45;;;6.45;;
10667;SDS011;5382;42.136;24.796;2022-10-16T07:11:01;8.23;;;5.43;;
10667;SDS011;5382;42.136;24.796;2022-10-16T07:13:29;9.25;;;5.35;;
10667;SDS011;5382;42.136;24.796;2022-10-16T07:15:55;6.82;;;6.13;;
10667;SDS011;5382;42.136;24.796;2022-10-16T07:18:22;6.20;;;5.15;;
10667;SDS011;5382;42.136;24.796;2022-10-16T07:20:51;8.07;;;5.43;;
10667;SDS011;5382;42.136;24.796;2022-10-16T07:23:20;6.68;;;5.28;;
10667;SDS011;5382;42.136;24.796;2022-10-16T07:25:53;7.95;;;5.93;;
10667;SDS011;5382;42.136;24.796;2022-10-16T07:28:20;8.80;;;5.93;;
10667;SDS011;5382;42.136;24.796;2022-10-16T07:30:48;10.38;;;6.05;;
10667;SDS011;5382;42.136;24.796;2022-10-16T07:33:14;8.80;;;6.13;;
10667;SDS011;5382;42.136;24.796;2022-10-16T07:35:47;8.75;;;6.05;;
10667;SDS011;5382;42.136;24.796;2022-10-16T07:38:14;7.45;;;5.65;;
10667;SDS011;5382;42.136;24.796;2022-10-16T07:40:42;6.75;;;5.53;;
10667;SDS011;5382;42.136;24.796;2022-10-16T07:43:09;7.63;;;6.30;;
10667;SDS011;5382;42.136;24.796;2022-10-16T07:45:36;11.48;;;5.45;;
10667;SDS011;5382;42.136;24.796;2022-10-16T07:48:04;6.55;;;4.80;;
10667;SDS011;5382;42.136;24.796;2022-10-16T07:50:31;8.13;;;5.90;;
10667;SDS011;5382;42.136;24.796;2022-10-16T07:52:58;8.48;;;5.13;;
10667;SDS011;5382;42.136;24.796;2022-10-16T07:55:24;6.22;;;5.35;;
10667;SDS011;5382;42.136;24.796;2022-10-16T07:57:53;7.28;;;5.60;;
10667;SDS011;5382;42.136;24.796;2022-10-16T08:00:21;8.90;;;5.25;;
10667;SDS011;5382;42.136;24.796;2022-10-16T08:02:49;7.53;;;5.60;;
10667;SDS011;5382;42.136;24.796;2022-10-16T08:05:15;10.52;;;5.30;;
10667;SDS011;5382;42.136;24.796;2022-10-16T08:07:42;10.00;;;5.47;;
10667;SDS011;5382;42.136;24.796;2022-10-16T08:10:10;6.72;;;6.03;;
10667;SDS011;5382;42.136;24.796;2022-10-16T08:12:42;7.00;;;6.30;;
10667;SDS011;5382;42.136;24.796;2022-10-16T08:15:11;8.55;;;5.95;;
10667;SDS011;5382;42.136;24.796;2022-10-16T08:17:38;6.40;;;5.78;;
10667;SDS011;5382;42.136;24.796;2022-10-16T08:20:05;7.88;;;5.63;;
10667;SDS011;5382;42.136;24.796;2022-10-16T08:22:32;6.13;;;5.53;;
10667;SDS011;5382;42.136;24.796;2022-10-16T08:24:59;6.55;;;5.57;;
10667;SDS011;5382;42.136;24.796;2022-10-16T08:27:30;8.43;;;5.15;;
10667;SDS011;5382;42.136;24.796;2022-10-16T08:29:57;8.40;;;5.70;;
10667;SDS011;5382;42.136;24.796;2022-10-16T08:32:25;11.85;;;7.38;;
10667;SDS011;5382;42.136;24.796;2022-10-16T08:34:52;7.32;;;5.00;;
10667;SDS011;5382;42.136;24.796;2022-10-16T08:37:19;7.85;;;6.93;;
10667;SDS011;5382;42.136;24.796;2022-10-16T08:39:46;9.00;;;7.55;;
10667;SDS011;5382;42.136;24.796;2022-10-16T08:42:16;7.10;;;5.57;;
10667;SDS011;5382;42.136;24.796;2022-10-16T08:45:08;6.05;;;4.80;;
10667;SDS011;5382;42.136;24.796;2022-10-16T08:47:50;8.18;;;4.97;;
10667;SDS011;5382;42.136;24.796;2022-10-16T08:50:26;7.03;;;5.15;;
10667;SDS011;5382;42.136;24.796;2022-10-16T08:52:56;9.65;;;4.97;;
10667;SDS011;5382;42.136;24.796;2022-10-16T08:55:31;8.40;;;5.20;;
10667;SDS011;5382;42.136;24.796;2022-10-16T08:58:07;8.75;;;5.10;;
10667;SDS011;5382;42.136;24.796;2022-10-16T09:00:39;6.80;;;5.72;;
10667;SDS011;5382;42.136;24.796;2022-10-16T09:03:10;7.00;;;5.47;;
10667;SDS011;5382;42.136;24.796;2022-10-16T09:05:55;7.57;;;4.93;;
10667;SDS011;5382;42.136;24.796;2022-10-16T09:08:31;9.55;;;4.43;;
10667;SDS011;5382;42.136;24.796;2022-10-16T09:11:04;4.60;;;4.20;;
10667;SDS011;5382;42.136;24.796;2022-10-16T09:13:43;6.53;;;4.38;;
10667;SDS011;5382;42.136;24.796;2022-10-16T09:16:19;5.50;;;4.32;;
10667;SDS011;5382;42.136;24.796;2022-10-16T09:18:53;5.18;;;4.10;;
10667;SDS011;5382;42.136;24.796;2022-10-16T09:21:28;6.05;;;4.22;;
10667;SDS011;5382;42.136;24.796;2022-10-16T09:23:57;4.95;;;4.15;;
10667;SDS011;5382;42.136;24.796;2022-10-16T09:26:26;4.57;;;4.03;;
10667;SDS011;5382;42.136;24.796;2022-10-16T09:28:53;4.68;;;4.00;;
10667;SDS011;5382;42.136;24.796;2022-10-16T09:31:21;6.60;;;4.15;;
10667;SDS011;5382;42.136;24.796;2022-10-16T09:33:50;4.90;;;3.97;;
10667;SDS011;5382;42.136;24.796;2022-10-16T09:36:22;5.78;;;3.60;;
10667;SDS011;5382;42.136;24.796;2022-10-16T09:39:01;4.82;;;4.05;;
10667;SDS011;5382;42.136;24.796;2022-10-16T09:41:30;5.47;;;3.33;;
10667;SDS011;5382;42.136;24.796;2022-10-16T09:44:00;5.63;;;4.07;;
10667;SDS011;5382;42.136;24.796;2022-10-16T09:46:29;4.20;;;3.40;;
10667;SDS011;5382;42.136;24.796;2022-10-16T09:48:59;6.45;;;3.88;;
10667;SDS011;5382;42.136;24.796;2022-10-16T09:51:27;7.32;;;3.65;;
10667;SDS011;5382;42.136;24.796;2022-10-16T09:53:58;5.68;;;3.30;;
10667;SDS011;5382;42.136;24.796;2022-10-16T09:56:27;5.38;;;3.50;;
10667;SDS011;5382;42.136;24.796;2022-10-16T09:58:56;7.13;;;3.50;;
10667;SDS011;5382;42.136;24.796;2022-10-16T10:01:26;5.22;;;3.72;;
10667;SDS011;5382;42.136;24.796;2022-10-16T10:03:56;7.03;;;4.18;;
10667;SDS011;5382;42.136;24.796;2022-10-16T10:06:28;5.38;;;3.65;;
10667;SDS011;5382;42.136;24.796;2022-10-16T10:08:57;4.38;;;3.45;;
10667;SDS011;5382;42.136;24.796;2022-10-16T10:11:39;3.70;;;3.20;;
10667;SDS011;5382;42.136;24.796;2022-10-16T10:14:12;4.63;;;3.30;;
10667;SDS011;5382;42.136;24.796;2022-10-16T10:16:44;7.65;;;3.42;;
10667;SDS011;5382;42.136;24.796;2022-10-16T10:19:14;4.10;;;3.70;;
10667;SDS011;5382;42.136;24.796;2022-10-16T10:21:42;3.42;;;2.65;;
10667;SDS011;5382;42.136;24.796;2022-10-16T10:24:12;4.32;;;3.38;;
10667;SDS011;5382;42.136;24.796;2022-10-16T10:26:41;6.75;;;3.38;;
10667;SDS011;5382;42.136;24.796;2022-10-16T10:29:28;5.97;;;3.30;;
10667;SDS011;5382;42.136;24.796;2022-10-16T10:32:08;4.28;;;3.35;;
10667;SDS011;5382;42.136;24.796;2022-10-16T10:40:34;6.75;;;3.42;;
10667;SDS011;5382;42.136;24.796;2022-10-16T10:43:12;4.00;;;3.22;;
10667;SDS011;5382;42.136;24.796;2022-10-16T10:45:57;8.75;;;3.58;;
10667;SDS011;5382;42.136;24.796;2022-10-16T10:48:34;3.92;;;2.95;;
10667;SDS011;5382;42.136;24.796;2022-10-16T10:51:18;4.03;;;2.72;;
10667;SDS011;5382;42.136;24.796;2022-10-16T10:53:52;12.52;;;3.22;;
10667;SDS011;5382;42.136;24.796;2022-10-16T10:56:34;7.68;;;3.75;;
10667;SDS011;5382;42.136;24.796;2022-10-16T10:59:30;22.80;;;7.75;;
10667;SDS011;5382;42.136;24.796;2022-10-16T11:02:04;6.78;;;3.92;;
10667;SDS011;5382;42.136;24.796;2022-10-16T11:04:51;4.82;;;3.35;;
10667;SDS011;5382;42.136;24.796;2022-10-16T11:07:49;3.83;;;2.95;;
10667;SDS011;5382;42.136;24.796;2022-10-16T11:10:21;3.25;;;2.58;;
10667;SDS011;5382;42.136;24.796;2022-10-16T11:12:52;3.65;;;2.63;;
10667;SDS011;5382;42.136;24.796;2022-10-16T11:15:24;4.22;;;3.10;;
10667;SDS011;5382;42.136;24.796;2022-10-16T11:17:55;4.45;;;2.80;;
10667;SDS011;5382;42.136;24.796;2022-10-16T11:20:30;18.73;;;4.13;;
10667;SDS011;5382;42.136;24.796;2022-10-16T11:23:02;5.32;;;3.13;;
10667;SDS011;5382;42.136;24.796;2022-10-16T11:25:33;3.30;;;3.00;;
10667;SDS011;5382;42.136;24.796;2022-10-16T11:28:01;3.78;;;2.97;;
10667;SDS011;5382;42.136;24.796;2022-10-16T11:30:38;5.75;;;3.08;;
10667;SDS011;5382;42.136;24.796;2022-10-16T11:33:17;4.10;;;3.13;;
10667;SDS011;5382;42.136;24.796;2022-10-16T11:35:53;4.20;;;2.63;;
10667;SDS011;5382;42.136;24.796;2022-10-16T11:38:28;4.80;;;3.15;;
10667;SDS011;5382;42.136;24.796;2022-10-16T11:41:00;3.88;;;3.10;;
10667;SDS011;5382;42.136;24.796;2022-10-16T11:43:34;3.72;;;2.70;;
10667;SDS011;5382;42.136;24.796;2022-10-16T11:46:08;4.72;;;3.28;;
10667;SDS011;5382;42.136;24.796;2022-10-16T11:48:40;12.73;;;3.17;;
10667;SDS011;5382;42.136;24.796;2022-10-16T11:51:14;4.30;;;3.05;;
10667;SDS011;5382;42.136;24.796;2022-10-16T11:53:51;4.22;;;3.25;;
10667;SDS011;5382;42.136;24.796;2022-10-16T11:56:22;5.85;;;3.05;;
10667;SDS011;5382;42.136;24.796;2022-10-16T11:58:52;5.22;;;3.10;;
10667;SDS011;5382;42.136;24.796;2022-10-16T12:01:26;3.38;;;2.88;;
10667;SDS011;5382;42.136;24.796;2022-10-16T12:04:12;5.05;;;2.88;;
10667;SDS011;5382;42.136;24.796;2022-10-16T12:06:48;3.83;;;3.40;;
10667;SDS011;5382;42.136;24.796;2022-10-16T12:09:21;4.72;;;3.30;;
10667;SDS011;5382;42.136;24.796;2022-10-16T12:11:51;4.32;;;3.35;;
10667;SDS011;5382;42.136;24.796;2022-10-16T12:14:19;6.60;;;3.97;;
10667;SDS011;5382;42.136;24.796;2022-10-16T12:17:02;4.10;;;3.60;;
10667;SDS011;5382;42.136;24.796;2022-10-16T12:19:31;4.85;;;4.28;;
10667;SDS011;5382;42.136;24.796;2022-10-16T12:22:00;5.53;;;3.72;;
10667;SDS011;5382;42.136;24.796;2022-10-16T12:24:33;6.97;;;3.70;;
10667;SDS011;5382;42.136;24.796;2022-10-16T12:27:02;5.30;;;3.50;;
10667;SDS011;5382;42.136;24.796;2022-10-16T12:29:35;4.97;;;3.10;;
10667;SDS011;5382;42.136;24.796;2022-10-16T12:32:05;4.28;;;3.17;;
10667;SDS011;5382;42.136;24.796;2022-10-16T12:34:48;4.03;;;2.85;;
10667;SDS011;5382;42.136;24.796;2022-10-16T12:37:18;5.38;;;2.83;;
10667;SDS011;5382;42.136;24.796;2022-10-16T12:39:51;4.13;;;3.20;;
10667;SDS011;5382;42.136;24.796;2022-10-16T12:42:20;6.35;;;3.33;;
10667;SDS011;5382;42.136;24.796;2022-10-16T12:44:58;5.53;;;3.40;;
10667;SDS011;5382;42.136;24.796;2022-10-16T12:47:35;3.58;;;3.08;;
10667;SDS011;5382;42.136;24.796;2022-10-16T12:52:55;4.72;;;3.50;;
10667;SDS011;5382;42.136;24.796;2022-10-16T12:55:24;5.72;;;3.78;;
10667;SDS011;5382;42.136;24.796;2022-10-16T12:57:59;4.03;;;3.35;;
10667;SDS011;5382;42.136;24.796;2022-10-16T13:00:42;3.95;;;3.60;;
10667;SDS011;5382;42.136;24.796;2022-10-16T13:03:27;4.05;;;3.30;;
10667;SDS011;5382;42.136;24.796;2022-10-16T13:06:10;4.93;;;3.22;;
10667;SDS011;5382;42.136;24.796;2022-10-16T13:08:56;6.13;;;3.53;;
10667;SDS011;5382;42.136;24.796;2022-10-16T13:11:38;3.75;;;3.17;;
10667;SDS011;5382;42.136;24.796;2022-10-16T13:17:31;5.28;;;3.22;;
10667;SDS011;5382;42.136;24.796;2022-10-16T13:20:09;3.90;;;3.40;;
10667;SDS011;5382;42.136;24.796;2022-10-16T13:22:45;5.85;;;3.15;;
10667;SDS011;5382;42.136;24.796;2022-10-16T13:25:22;5.78;;;3.17;;
10667;SDS011;5382;42.136;24.796;2022-10-16T13:28:00;8.48;;;3.40;;
10667;SDS011;5382;42.136;24.796;2022-10-16T13:30:28;5.22;;;3.25;;
10667;SDS011;5382;42.136;24.796;2022-10-16T13:32:59;4.07;;;3.55;;
10667;SDS011;5382;42.136;24.796;2022-10-16T13:35:31;4.05;;;3.38;;
10667;SDS011;5382;42.136;24.796;2022-10-16T13:38:05;4.35;;;3.70;;
10667;SDS011;5382;42.136;24.796;2022-10-16T13:40:48;6.45;;;3.72;;
10667;SDS011;5382;42.136;24.796;2022-10-16T13:43:21;3.47;;;2.85;;
10667;SDS011;5382;42.136;24.796;2022-10-16T13:45:55;8.00;;;3.45;;
10667;SDS011;5382;42.136;24.796;2022-10-16T13:48:23;6.05;;;3.55;;
10667;SDS011;5382;42.136;24.796;2022-10-16T13:51:00;13.38;;;3.50;;
10667;SDS011;5382;42.136;24.796;2022-10-16T13:53:29;4.15;;;3.10;;
10667;SDS011;5382;42.136;24.796;2022-10-16T13:55:57;5.38;;;3.53;;
10667;SDS011;5382;42.136;24.796;2022-10-16T13:58:26;6.05;;;3.28;;
10667;SDS011;5382;42.136;24.796;2022-10-16T14:00:54;6.60;;;3.25;;
10667;SDS011;5382;42.136;24.796;2022-10-16T14:03:22;5.40;;;3.15;;
10667;SDS011;5382;42.136;24.796;2022-10-16T14:05:52;3.30;;;3.00;;
10667;SDS011;5382;42.136;24.796;2022-10-16T14:08:20;4.57;;;3.50;;
10667;SDS011;5382;42.136;24.796;2022-10-16T14:10:48;5.60;;;3.30;;
10667;SDS011;5382;42.136;24.796;2022-10-16T14:13:17;4.20;;;3.17;;
10667;SDS011;5382;42.136;24.796;2022-10-16T14:15:49;4.25;;;3.60;;
10667;SDS011;5382;42.136;24.796;2022-10-16T14:18:20;4.70;;;3.90;;
10667;SDS011;5382;42.136;24.796;2022-10-16T14:20:49;12.02;;;3.85;;
10667;SDS011;5382;42.136;24.796;2022-10-16T14:23:19;4.55;;;3.20;;
10667;SDS011;5382;42.136;24.796;2022-10-16T14:25:48;9.05;;;3.10;;
10667;SDS011;5382;42.136;24.796;2022-10-16T14:28:15;9.75;;;3.85;;
10667;SDS011;5382;42.136;24.796;2022-10-16T14:30:52;7.28;;;3.63;;
10667;SDS011;5382;42.136;24.796;2022-10-16T14:33:21;4.40;;;3.42;;
10667;SDS011;5382;42.136;24.796;2022-10-16T14:36:00;5.25;;;3.50;;
10667;SDS011;5382;42.136;24.796;2022-10-16T14:38:29;7.00;;;3.47;;
10667;SDS011;5382;42.136;24.796;2022-10-16T14:40:58;5.28;;;3.53;;
10667;SDS011;5382;42.136;24.796;2022-10-16T14:43:28;8.63;;;3.58;;
10667;SDS011;5382;42.136;24.796;2022-10-16T14:46:01;5.40;;;3.25;;
10667;SDS011;5382;42.136;24.796;2022-10-16T14:48:29;7.15;;;4.40;;
10667;SDS011;5382;42.136;24.796;2022-10-16T14:50:56;4.75;;;3.33;;
10667;SDS011;5382;42.136;24.796;2022-10-16T14:53:23;5.60;;;3.70;;
10667;SDS011;5382;42.136;24.796;2022-10-16T14:55:50;6.30;;;3.50;;
10667;SDS011;5382;42.136;24.796;2022-10-16T14:58:17;5.32;;;3.30;;
10667;SDS011;5382;42.136;24.796;2022-10-16T15:00:47;3.90;;;3.08;;
10667;SDS011;5382;42.136;24.796;2022-10-16T15:03:16;4.75;;;3.70;;
10667;SDS011;5382;42.136;24.796;2022-10-16T15:05:43;4.50;;;3.53;;
10667;SDS011;5382;42.136;24.796;2022-10-16T15:08:09;5.03;;;3.75;;
10667;SDS011;5382;42.136;24.796;2022-10-16T15:10:38;5.78;;;3.67;;
10667;SDS011;5382;42.136;24.796;2022-10-16T15:13:09;5.60;;;3.35;;